Olbia / Costa Smeralda Airport LIEO

Flugplatz Daten

Name: Olbia / Costa Smeralda Airport

Ident: LIEO

Lat: 40,89870071

Long: 9,517629623

Platzhöhe: 37 ft

IataCode: OLB

City: Olbia

Metar

2021/12/03 23:20
LIEO 032320Z 23011KT 9999 SCT040 08/06 Q1015

Taf

2021/12/03 18:21
TAF LIEO 031700Z 0318/0418 26015KT 9999 SCT030
Gewünschte Webcam nicht vorhanden? Dann fügen Sie eine hinzu. Sie wird dann so schnell wie möglich freigeschaltet
Url: Title: